Time;durP1;ratioP1;P1;durP2;ratioP2;P2;SDS_P1;SDS_P2;PMS_P1;PMS_P2;Temp;Humidity;BMP_temperature;BMP_pressure;BME280_temperature;BME280_humidity;BME280_pressure;Samples;Min_cycle;Max_cycle;Signal;HPM_P1;HPM_P2
2024/01/07 00:00:46;;;;;;;;;;;;;;;0.63;100.00;94859.09;10556479;28;3638;-69
2024/01/07 00:05:49;;;;;;;;;;;;;;;0.62;100.00;94856.72;10535861;28;1933;-68
2024/01/07 00:10:51;;;;;;;;;;;;;;;0.61;100.00;94855.09;10533348;28;2028;-71
2024/01/07 00:15:56;;;;;;;;;;;;;;;0.52;100.00;94858.13;10554421;28;2057;-67
2024/01/07 00:20:58;;;;;;;;;;;;;;;0.50;100.00;94854.88;10551872;28;2120;-71
2024/01/07 00:26:02;;;;;;;;;;;;;;;0.49;100.00;94857.75;10556847;28;1965;-73
2024/01/07 00:31:07;;;;;;;;;;;;;;;0.48;100.00;94854.31;10538237;28;1966;-70
2024/01/07 00:36:09;;;;;;;;;;;;;;;0.48;100.00;94851.69;10548118;28;1976;-71
2024/01/07 00:41:12;;;;;;;;;;;;;;;0.47;100.00;94858.00;10558419;28;1944;-66
2024/01/07 00:46:15;;;;;;;;;;;;;;;0.43;100.00;94856.84;10560340;28;2317;-66
2024/01/07 00:51:17;;;;;;;;;;;;;;;0.44;100.00;94853.16;10573463;27;2087;-65
2024/01/07 00:56:19;;;;;;;;;;;;;;;0.41;100.00;94850.19;10572733;27;2283;-66
2024/01/07 01:01:22;;;;;;;;;;;;;;;0.45;100.00;94854.81;10559830;28;1946;-65
2024/01/07 01:06:24;;;;;;;;;;;;;;;0.43;100.00;94858.69;10562169;27;1928;-66
2024/01/07 01:11:27;;;;;;;;;;;;;;;0.42;100.00;94859.75;10554951;28;2033;-66
2024/01/07 01:16:29;;;;;;;;;;;;;;;0.45;100.00;94856.66;10559070;28;2044;-65
2024/01/07 01:21:32;;;;;;;;;;;;;;;0.45;100.00;94859.28;10562508;27;2022;-68
2024/01/07 01:26:34;;;;;;;;;;;;;;;0.52;100.00;94866.06;10560203;27;1923;-67
2024/01/07 01:31:37;;;;;;;;;;;;;;;0.50;100.00;94860.16;10559212;27;2340;-67
2024/01/07 01:36:39;;;;;;;;;;;;;;;0.45;100.00;94860.09;10554405;27;2255;-67
2024/01/07 01:41:41;;;;;;;;;;;;;;;0.43;100.00;94862.13;10559723;27;2089;-65
2024/01/07 01:46:44;;;;;;;;;;;;;;;0.46;100.00;94866.19;10550184;28;2060;-67
2024/01/07 01:51:46;;;;;;;;;;;;;;;0.46;100.00;94853.75;10557532;28;2072;-66
2024/01/07 01:56:49;;;;;;;;;;;;;;;0.45;100.00;94849.50;10554718;27;2073;-65
2024/01/07 02:01:52;;;;;;;;;;;;;;;0.42;100.00;94855.25;10549564;27;4925;-67
2024/01/07 02:06:55;;;;;;;;;;;;;;;0.40;100.00;94852.03;10546813;27;1948;-67
2024/01/07 02:11:57;;;;;;;;;;;;;;;0.41;100.00;94858.13;10550834;28;1985;-67
2024/01/07 02:17:00;;;;;;;;;;;;;;;0.41;100.00;94848.34;10539028;28;2064;-66
2024/01/07 02:22:02;;;;;;;;;;;;;;;0.39;100.00;94844.34;10549591;28;1985;-65
2024/01/07 02:27:05;;;;;;;;;;;;;;;0.37;100.00;94852.50;10557497;27;2119;-66
2024/01/07 02:32:08;;;;;;;;;;;;;;;0.37;100.00;94846.41;10544136;27;2544;-67
2024/01/07 02:37:10;;;;;;;;;;;;;;;0.39;100.00;94855.72;10542065;28;1985;-69
2024/01/07 02:42:13;;;;;;;;;;;;;;;0.36;100.00;94855.38;10556858;28;2317;-66
2024/01/07 02:47:15;;;;;;;;;;;;;;;0.38;100.00;94862.06;10549553;27;1919;-66
2024/01/07 02:52:18;;;;;;;;;;;;;;;0.39;100.00;94853.09;10554098;28;2104;-67
2024/01/07 02:57:21;;;;;;;;;;;;;;;0.38;100.00;94851.47;10550996;28;2052;-68
2024/01/07 03:02:24;;;;;;;;;;;;;;;0.37;100.00;94847.22;10550675;27;5073;-66
2024/01/07 03:07:27;;;;;;;;;;;;;;;0.39;100.00;94845.16;10557630;27;2057;-67
2024/01/07 03:12:29;;;;;;;;;;;;;;;0.34;100.00;94845.03;10549418;28;2078;-69
2024/01/07 03:17:32;;;;;;;;;;;;;;;0.35;100.00;94845.84;10551830;28;2089;-67
2024/01/07 03:22:34;;;;;;;;;;;;;;;0.36;100.00;94850.09;10548735;28;1924;-66
2024/01/07 03:27:37;;;;;;;;;;;;;;;0.36;100.00;94848.25;10549617;27;2084;-66
2024/01/07 03:32:39;;;;;;;;;;;;;;;0.39;100.00;94849.63;10556871;28;2049;-67
2024/01/07 03:37:42;;;;;;;;;;;;;;;0.39;100.00;94852.28;10551900;27;2067;-67
2024/01/07 03:42:44;;;;;;;;;;;;;;;0.38;100.00;94854.13;10550759;28;1937;-70
2024/01/07 03:47:47;;;;;;;;;;;;;;;0.35;100.00;94856.41;10555607;28;1884;-67
2024/01/07 03:52:49;;;;;;;;;;;;;;;0.35;100.00;94849.28;10529134;28;2143;-70
2024/01/07 03:57:52;;;;;;;;;;;;;;;0.40;100.00;94851.25;10555041;28;2014;-67
2024/01/07 04:02:54;;;;;;;;;;;;;;;0.40;100.00;94856.53;10549733;28;4885;-68
2024/01/07 04:07:56;;;;;;;;;;;;;;;0.34;100.00;94860.91;10551703;28;2025;-67
2024/01/07 04:12:59;;;;;;;;;;;;;;;0.37;100.00;94864.91;10542398;28;2131;-68
2024/01/07 04:18:03;;;;;;;;;;;;;;;0.41;100.00;94868.72;10549391;28;2007;-68
2024/01/07 04:23:05;;;;;;;;;;;;;;;0.36;100.00;94872.03;10548161;28;2736;-68
2024/01/07 04:28:09;;;;;;;;;;;;;;;0.27;100.00;94865.50;10544287;28;2099;-69
2024/01/07 04:33:12;;;;;;;;;;;;;;;0.25;100.00;94876.31;10549485;28;7023;-68
2024/01/07 04:38:14;;;;;;;;;;;;;;;0.24;100.00;94879.97;10545058;28;2067;-69
2024/01/07 04:43:17;;;;;;;;;;;;;;;0.26;100.00;94883.22;10550716;28;1986;-68
2024/01/07 04:48:20;;;;;;;;;;;;;;;0.32;100.00;94889.41;10549330;28;2140;-68
2024/01/07 04:53:23;;;;;;;;;;;;;;;0.36;100.00;94893.19;10547666;28;2175;-68
2024/01/07 04:58:25;;;;;;;;;;;;;;;0.39;100.00;94898.03;10544857;28;2014;-67
2024/01/07 05:03:28;;;;;;;;;;;;;;;0.42;100.00;94902.03;10556849;28;1934;-68
2024/01/07 05:08:31;;;;;;;;;;;;;;;0.42;100.00;94912.63;10551822;28;2128;-68
2024/01/07 05:13:34;;;;;;;;;;;;;;;0.39;100.00;94921.81;10540292;28;2125;-71
2024/01/07 05:18:37;;;;;;;;;;;;;;;0.40;100.00;94920.78;10541831;28;1988;-68
2024/01/07 05:23:40;;;;;;;;;;;;;;;0.40;100.00;94922.63;10540763;28;2017;-68
2024/01/07 05:28:43;;;;;;;;;;;;;;;0.45;100.00;94928.84;10550313;28;2210;-70
2024/01/07 05:33:45;;;;;;;;;;;;;;;0.36;100.00;94924.91;10558453;28;2676;-69
2024/01/07 05:38:48;;;;;;;;;;;;;;;0.45;100.00;94915.63;10554087;28;1978;-69
2024/01/07 05:43:51;;;;;;;;;;;;;;;0.35;100.00;94920.66;10556580;27;2103;-68
2024/01/07 05:48:53;;;;;;;;;;;;;;;0.33;100.00;94928.03;10555400;28;2227;-69
2024/01/07 05:53:56;;;;;;;;;;;;;;;0.35;100.00;94925.94;10551819;28;2120;-68
2024/01/07 05:58:58;;;;;;;;;;;;;;;0.22;100.00;94936.75;10556752;28;1990;-68
2024/01/07 06:04:01;;;;;;;;;;;;;;;0.15;100.00;94941.34;10553674;28;2111;-69
2024/01/07 06:09:04;;;;;;;;;;;;;;;0.16;100.00;94938.47;10562099;27;2037;-70
2024/01/07 06:14:07;;;;;;;;;;;;;;;0.10;100.00;94951.78;10549829;27;1920;-70
2024/01/07 06:19:09;;;;;;;;;;;;;;;0.10;100.00;94951.78;10553663;28;1941;-68
2024/01/07 06:24:12;;;;;;;;;;;;;;;0.10;100.00;94957.09;10559006;27;2079;-68
2024/01/07 06:29:15;;;;;;;;;;;;;;;0.12;100.00;94955.81;10547402;28;2478;-70
2024/01/07 06:34:17;;;;;;;;;;;;;;;0.05;100.00;94964.88;10555336;28;1970;-69
2024/01/07 06:39:20;;;;;;;;;;;;;;;0.05;100.00;94970.16;10560367;27;1938;-70
2024/01/07 06:44:23;;;;;;;;;;;;;;;0.12;100.00;94962.94;10552619;28;2005;-68
2024/01/07 06:49:26;;;;;;;;;;;;;;;0.12;100.00;94979.59;10560428;27;2135;-72
2024/01/07 06:54:28;;;;;;;;;;;;;;;0.02;100.00;94992.56;10551606;27;2033;-69
2024/01/07 06:59:31;;;;;;;;;;;;;;;0.08;100.00;94981.09;10552388;27;2102;-70
2024/01/07 07:04:33;;;;;;;;;;;;;;;0.12;100.00;94992.81;10558655;27;2057;-67
2024/01/07 07:09:36;;;;;;;;;;;;;;;0.09;100.00;95000.41;10552025;28;2002;-68
2024/01/07 07:14:39;;;;;;;;;;;;;;;0.12;100.00;95002.56;10552578;27;1954;-68
2024/01/07 07:19:41;;;;;;;;;;;;;;;0.04;100.00;95005.56;10551375;28;1927;-68
2024/01/07 07:24:47;;;;;;;;;;;;;;;0.11;100.00;95011.53;10559652;27;2409;-67
2024/01/07 07:29:50;;;;;;;;;;;;;;;0.02;100.00;95023.47;10551620;27;2951;-68
2024/01/07 07:34:53;;;;;;;;;;;;;;;0.11;100.00;95022.09;10550900;28;2080;-69
2024/01/07 07:39:55;;;;;;;;;;;;;;;0.12;100.00;95029.00;10551071;28;2128;-68
2024/01/07 07:44:58;;;;;;;;;;;;;;;0.06;100.00;95035.19;10556070;28;2044;-67
2024/01/07 07:50:00;;;;;;;;;;;;;;;0.09;100.00;95042.69;10552242;27;1971;-68
2024/01/07 07:55:06;;;;;;;;;;;;;;;-0.01;100.00;95046.66;10554146;28;2045;-69
2024/01/07 08:00:12;;;;;;;;;;;;;;;-0.08;100.00;95045.16;10560237;27;1977;-68
2024/01/07 08:05:15;;;;;;;;;;;;;;;0.00;100.00;95058.06;10552201;28;1933;-70
2024/01/07 08:10:18;;;;;;;;;;;;;;;-0.03;100.00;95061.13;10545637;28;1982;-67
2024/01/07 08:15:21;;;;;;;;;;;;;;;0.02;100.00;95071.03;10547419;28;1992;-69
2024/01/07 08:20:23;;;;;;;;;;;;;;;-0.03;100.00;95075.16;10557356;28;2595;-67
2024/01/07 08:25:25;;;;;;;;;;;;;;;0.07;100.00;95076.47;10550650;28;2202;-67
2024/01/07 08:30:28;;;;;;;;;;;;;;;0.09;100.00;95085.75;10544095;28;2064;-67
2024/01/07 08:35:31;;;;;;;;;;;;;;;0.06;100.00;95080.91;10540010;28;2073;-67
2024/01/07 08:40:34;;;;;;;;;;;;;;;-0.01;100.00;95098.69;10560125;28;2277;-67
2024/01/07 08:45:36;;;;;;;;;;;;;;;0.01;100.00;95095.84;10550018;28;1954;-68
2024/01/07 08:50:39;;;;;;;;;;;;;;;-0.02;100.00;95108.47;10559530;28;2115;-68
2024/01/07 08:55:41;;;;;;;;;;;;;;;0.08;100.00;95107.13;10545960;28;1970;-68
2024/01/07 09:00:44;;;;;;;;;;;;;;;-0.07;100.00;95110.97;10547030;28;1986;-67
2024/01/07 09:05:47;;;;;;;;;;;;;;;-0.03;100.00;95117.44;10562582;28;1891;-68
2024/01/07 09:10:50;;;;;;;;;;;;;;;0.05;100.00;95128.72;10562508;27;1893;-67
2024/01/07 09:15:53;;;;;;;;;;;;;;;0.00;100.00;95126.75;10562812;27;2968;-70
2024/01/07 09:20:56;;;;;;;;;;;;;;;0.10;100.00;95127.00;10555389;28;2067;-68
2024/01/07 09:25:59;;;;;;;;;;;;;;;0.14;100.00;95135.31;10560136;28;2177;-69
2024/01/07 09:31:02;;;;;;;;;;;;;;;0.12;100.00;95140.00;10557021;28;2129;-70
2024/01/07 09:36:05;;;;;;;;;;;;;;;0.19;100.00;95146.00;10553757;28;1954;-68
2024/01/07 09:41:26;;;;;;;;;;;;;;;0.30;100.00;95142.59;10560336;28;1907;-69
2024/01/07 09:46:29;;;;;;;;;;;;;;;0.15;100.00;95144.84;10553104;28;2028;-68
2024/01/07 09:51:31;;;;;;;;;;;;;;;0.17;100.00;95142.78;10557429;28;1916;-69
2024/01/07 09:56:34;;;;;;;;;;;;;;;0.12;100.00;95145.28;10561633;28;1969;-68
2024/01/07 10:01:37;;;;;;;;;;;;;;;0.12;100.00;95145.28;10561525;28;1899;-67
2024/01/07 10:06:40;;;;;;;;;;;;;;;0.27;100.00;95148.34;10558090;28;2717;-70
2024/01/07 10:11:43;;;;;;;;;;;;;;;0.17;100.00;95148.06;10564823;27;1949;-69
2024/01/07 10:16:45;;;;;;;;;;;;;;;0.27;100.00;95148.34;10560840;28;2037;-70
2024/01/07 10:21:48;;;;;;;;;;;;;;;0.13;100.00;95152.22;10559564;28;1952;-68
2024/01/07 10:26:50;;;;;;;;;;;;;;;0.19;100.00;95151.28;10560640;28;1930;-68
2024/01/07 10:31:53;;;;;;;;;;;;;;;0.34;100.00;95149.06;10554689;28;2092;-68
2024/01/07 10:36:56;;;;;;;;;;;;;;;0.35;100.00;95163.88;10556026;27;2088;-69
2024/01/07 10:41:58;;;;;;;;;;;;;;;0.31;100.00;95148.69;10560628;28;1883;-70
2024/01/07 10:47:01;;;;;;;;;;;;;;;0.50;100.00;95151.06;10551623;28;1938;-70
2024/01/07 10:52:04;;;;;;;;;;;;;;;0.48;100.00;95147.84;10553578;27;2405;-69
2024/01/07 10:57:06;;;;;;;;;;;;;;;0.50;100.00;95148.41;10553797;28;2042;-69
2024/01/07 11:02:09;;;;;;;;;;;;;;;0.35;100.00;95158.59;10547546;28;1883;-71
2024/01/07 11:07:11;;;;;;;;;;;;;;;0.37;100.00;95158.38;10555136;27;2068;-67
2024/01/07 11:12:14;;;;;;;;;;;;;;;0.27;100.00;95156.28;10557215;27;1912;-68
2024/01/07 11:17:17;;;;;;;;;;;;;;;0.37;100.00;95153.88;10551012;28;1963;-69
2024/01/07 11:22:19;;;;;;;;;;;;;;;0.14;100.00;95148.53;10554503;27;1994;-69
2024/01/07 11:27:21;;;;;;;;;;;;;;;-0.03;100.00;95159.69;10552396;28;1957;-70
2024/01/07 11:32:25;;;;;;;;;;;;;;;0.03;100.00;95157.22;10547064;27;2049;-69
2024/01/07 11:37:27;;;;;;;;;;;;;;;-0.04;100.00;95165.22;10553448;28;1905;-69
2024/01/07 11:42:31;;;;;;;;;;;;;;;-0.06;100.00;95165.44;10554947;28;1971;-70
2024/01/07 11:47:33;;;;;;;;;;;;;;;-0.02;100.00;95169.25;10546981;27;2529;-71
2024/01/07 11:52:38;;;;;;;;;;;;;;;-0.03;100.00;95169.47;10552204;28;1956;-69
2024/01/07 11:57:41;;;;;;;;;;;;;;;0.08;100.00;95163.44;10557145;28;2105;-70
2024/01/07 12:02:43;;;;;;;;;;;;;;;0.16;100.00;95167.59;10560154;28;2026;-70
2024/01/07 12:07:48;;;;;;;;;;;;;;;0.12;100.00;95175.16;10551750;28;1992;-71
2024/01/07 12:12:50;;;;;;;;;;;;;;;-0.06;100.00;95181.28;10546657;28;1883;-68
2024/01/07 12:17:53;;;;;;;;;;;;;;;-0.10;100.00;95181.94;10553314;27;2073;-69
2024/01/07 12:22:55;;;;;;;;;;;;;;;-0.26;100.00;95185.97;10551763;28;1988;-70
2024/01/07 12:27:58;;;;;;;;;;;;;;;-0.31;100.00;95193.78;10552145;28;2071;-72
2024/01/07 12:33:00;;;;;;;;;;;;;;;-0.34;100.00;95189.72;10555324;28;2042;-75
2024/01/07 12:38:03;;;;;;;;;;;;;;;-0.52;100.00;95187.06;10564400;28;2263;-71
2024/01/07 12:43:06;;;;;;;;;;;;;;;-0.48;100.00;95198.00;10563688;27;1891;-71
2024/01/07 12:48:09;;;;;;;;;;;;;;;-0.47;100.00;95199.63;10569227;27;2003;-72
2024/01/07 12:53:11;;;;;;;;;;;;;;;-0.61;100.00;95205.03;10559526;27;1965;-74
2024/01/07 12:58:14;;;;;;;;;;;;;;;-0.28;100.00;95217.09;10573518;27;2003;-76
2024/01/07 13:03:18;;;;;;;;;;;;;;;-0.25;100.00;95214.03;10570705;27;1967;-71
2024/01/07 13:08:22;;;;;;;;;;;;;;;-0.35;100.00;95213.72;10569916;28;2203;-71
2024/01/07 13:13:25;;;;;;;;;;;;;;;-0.23;100.00;95225.19;10569845;27;1971;-73
2024/01/07 13:18:27;;;;;;;;;;;;;;;-0.30;100.00;95235.00;10565841;27;2118;-72
2024/01/07 13:23:32;;;;;;;;;;;;;;;-0.40;100.00;95235.50;10562271;27;2092;-72
2024/01/07 13:28:35;;;;;;;;;;;;;;;-0.52;100.00;95234.59;10555685;27;1899;-70
2024/01/07 13:33:37;;;;;;;;;;;;;;;-0.73;100.00;95245.56;10565656;27;2019;-70
2024/01/07 13:38:41;;;;;;;;;;;;;;;-0.69;100.00;95239.63;10559366;28;2060;-69
2024/01/07 13:43:47;;;;;;;;;;;;;;;-0.79;100.00;95252.50;10563695;27;1986;-70
2024/01/07 13:48:49;;;;;;;;;;;;;;;-0.72;100.00;95257.72;10560098;27;2124;-70
2024/01/07 13:53:52;;;;;;;;;;;;;;;-0.85;100.00;95256.00;10553443;28;1944;-69
2024/01/07 13:58:56;;;;;;;;;;;;;;;-0.83;100.00;95265.34;10560378;27;1991;-71
2024/01/07 14:03:58;;;;;;;;;;;;;;;-0.67;100.00;95266.59;10553695;28;1982;-70
2024/01/07 14:09:02;;;;;;;;;;;;;;;-0.78;100.00;95266.50;10559587;28;1918;-70
2024/01/07 14:14:04;;;;;;;;;;;;;;;-0.90;100.00;95280.38;10557857;28;2240;-69
2024/01/07 14:19:07;;;;;;;;;;;;;;;-1.05;100.00;95287.00;10556103;27;2065;-69
2024/01/07 14:24:10;;;;;;;;;;;;;;;-1.01;100.00;95294.28;10561845;28;1864;-68
2024/01/07 14:29:13;;;;;;;;;;;;;;;-0.95;100.00;95303.16;10558159;28;1952;-66
2024/01/07 14:34:20;;;;;;;;;;;;;;;-1.00;100.00;95295.09;10555604;28;1912;-68
2024/01/07 14:39:23;;;;;;;;;;;;;;;-0.90;100.00;95313.88;10559591;28;2028;-69
2024/01/07 14:44:25;;;;;;;;;;;;;;;-1.07;100.00;95318.06;10556540;27;1849;-67
2024/01/07 14:49:45;;;;;;;;;;;;;;;-0.91;100.00;95317.53;10563409;27;1944;-68
2024/01/07 14:54:48;;;;;;;;;;;;;;;-0.86;100.00;95328.25;10559169;27;2029;-68
2024/01/07 14:59:51;;;;;;;;;;;;;;;-0.98;100.00;95329.97;10552651;28;2126;-69
2024/01/07 15:04:54;;;;;;;;;;;;;;;-1.00;100.00;95334.66;10558751;28;2495;-70
2024/01/07 15:09:59;;;;;;;;;;;;;;;-0.99;100.00;95344.19;10561298;28;1993;-67
2024/01/07 15:15:03;;;;;;;;;;;;;;;-1.01;100.00;95346.22;10560063;28;2165;-69
2024/01/07 15:20:06;;;;;;;;;;;;;;;-1.23;100.00;95348.34;10558034;27;2007;-70
2024/01/07 15:25:10;;;;;;;;;;;;;;;-1.23;100.00;95354.44;10559800;27;2008;-69
2024/01/07 15:30:12;;;;;;;;;;;;;;;-1.27;100.00;95358.53;10554292;27;2002;-68
2024/01/07 15:35:19;;;;;;;;;;;;;;;-1.32;100.00;95366.25;10545642;27;2045;-68
2024/01/07 15:40:21;;;;;;;;;;;;;;;-1.44;100.00;95370.56;10554314;28;2040;-71
2024/01/07 15:45:24;;;;;;;;;;;;;;;-1.42;100.00;95371.16;10554876;28;1943;-73
2024/01/07 15:50:27;;;;;;;;;;;;;;;-1.41;100.00;95394.66;10550484;28;2179;-73
2024/01/07 15:55:30;;;;;;;;;;;;;;;-1.48;100.00;95387.81;10546524;28;1993;-73
2024/01/07 16:00:33;;;;;;;;;;;;;;;-1.36;100.00;95388.78;10552670;28;1971;-71
2024/01/07 16:05:36;;;;;;;;;;;;;;;-1.46;100.00;95401.59;10564859;28;1832;-71
2024/01/07 16:10:41;;;;;;;;;;;;;;;-1.41;100.00;95409.69;10565767;27;1723;-71
2024/01/07 16:15:43;;;;;;;;;;;;;;;-1.45;100.00;95413.75;10564448;27;1709;-70
2024/01/07 16:20:46;;;;;;;;;;;;;;;-1.41;100.00;95418.41;10563334;28;2036;-71
2024/01/07 16:25:48;;;;;;;;;;;;;;;-1.51;100.00;95425.13;10565145;28;1793;-70
2024/01/07 16:30:54;;;;;;;;;;;;;;;-1.50;100.00;95438.09;10558181;28;2312;-70
2024/01/07 16:35:57;;;;;;;;;;;;;;;-1.26;100.00;95441.09;10565038;28;1843;-72
2024/01/07 16:41:00;;;;;;;;;;;;;;;-1.41;100.00;95449.22;10560954;28;2002;-72
2024/01/07 16:46:03;;;;;;;;;;;;;;;-1.39;100.00;95457.75;10558177;28;1568;-71
2024/01/07 16:51:11;;;;;;;;;;;;;;;-1.36;100.00;95455.50;10562768;28;1435;-72
2024/01/07 16:56:15;;;;;;;;;;;;;;;-1.50;100.00;95464.47;10561262;28;1498;-72
2024/01/07 17:01:18;;;;;;;;;;;;;;;-1.47;100.00;95473.78;10560585;28;1913;-72
2024/01/07 17:06:25;;;;;;;;;;;;;;;-1.41;100.00;95467.69;10561543;28;1462;-72
2024/01/07 17:11:28;;;;;;;;;;;;;;;-1.45;100.00;95474.41;10563790;28;1527;-72
2024/01/07 17:16:31;;;;;;;;;;;;;;;-1.58;100.00;95483.13;10559841;28;2202;-71
2024/01/07 17:21:33;;;;;;;;;;;;;;;-1.43;100.00;95486.34;10555031;28;2076;-72
2024/01/07 17:26:38;;;;;;;;;;;;;;;-1.77;100.00;95495.31;10559073;28;1966;-75
2024/01/07 17:31:40;;;;;;;;;;;;;;;-1.67;100.00;95495.69;10560168;28;1902;-72
2024/01/07 17:36:43;;;;;;;;;;;;;;;-1.66;100.00;95507.03;10562222;27;2510;-72
2024/01/07 17:41:45;;;;;;;;;;;;;;;-1.54;100.00;95518.59;10554258;28;2019;-71
2024/01/07 17:46:48;;;;;;;;;;;;;;;-1.67;100.00;95519.41;10551833;28;2315;-72
2024/01/07 17:51:51;;;;;;;;;;;;;;;-1.57;100.00;95523.47;10557619;28;1942;-75
2024/01/07 17:56:54;;;;;;;;;;;;;;;-1.73;100.00;95524.69;10559932;28;1989;-74
2024/01/07 18:01:57;;;;;;;;;;;;;;;-1.76;100.00;95523.28;10559017;28;2000;-75
2024/01/07 18:07:00;;;;;;;;;;;;;;;-1.79;100.00;95549.22;10556147;28;1960;-72
2024/01/07 18:12:03;;;;;;;;;;;;;;;-1.88;100.00;95548.59;10566430;27;1890;-72
2024/01/07 18:17:05;;;;;;;;;;;;;;;-1.74;100.00;95552.06;10552374;28;2252;-73
2024/01/07 18:22:08;;;;;;;;;;;;;;;-1.92;100.00;95565.81;10553544;28;2002;-71
2024/01/07 18:27:11;;;;;;;;;;;;;;;-1.95;100.00;95571.50;10558470;28;2044;-69
2024/01/07 18:32:13;;;;;;;;;;;;;;;-1.93;100.00;95572.09;10564148;28;1986;-70
2024/01/07 18:37:20;;;;;;;;;;;;;;;-1.88;100.00;95571.50;10565176;27;2068;-72
2024/01/07 18:42:24;;;;;;;;;;;;;;;-2.00;100.00;95573.91;10555819;28;1913;-73
2024/01/07 18:47:27;;;;;;;;;;;;;;;-1.99;100.00;95583.44;10556895;28;2044;-72
2024/01/07 18:52:30;;;;;;;;;;;;;;;-2.03;100.00;95590.13;10561668;28;1927;-73
2024/01/07 18:57:33;;;;;;;;;;;;;;;-2.06;100.00;95590.53;10547971;27;1883;-72
2024/01/07 19:02:36;;;;;;;;;;;;;;;-2.02;100.00;95591.75;10557072;27;2041;-73
2024/01/07 19:07:40;;;;;;;;;;;;;;;-1.91;100.00;95601.69;10554409;27;2190;-73
2024/01/07 19:12:43;;;;;;;;;;;;;;;-1.98;100.00;95603.50;10557502;28;2041;-73
2024/01/07 19:17:47;;;;;;;;;;;;;;;-1.89;100.00;95612.06;10551853;28;2030;-72
2024/01/07 19:22:52;;;;;;;;;;;;;;;-2.46;100.00;95611.47;10551461;27;2819;-73
2024/01/07 19:27:58;;;;;;;;;;;;;;;-2.59;100.00;95617.47;10560019;28;2065;-79
2024/01/07 19:33:02;;;;;;;;;;;;;;;-2.83;100.00;95621.41;10549774;28;1920;-76
2024/01/07 19:38:07;;;;;;;;;;;;;;;-2.90;100.00;95625.81;10556286;28;1957;-74
2024/01/07 19:43:15;;;;;;;;;;;;;;;-3.01;100.00;95634.22;10547164;28;1981;-72
2024/01/07 19:48:20;;;;;;;;;;;;;;;-3.03;100.00;95644.16;10559783;28;2085;-73
2024/01/07 19:53:24;;;;;;;;;;;;;;;-3.14;100.00;95642.84;10555400;28;2110;-74
2024/01/07 19:58:32;;;;;;;;;;;;;;;-2.98;100.00;95644.38;10556876;28;1921;-71
2024/01/07 20:03:34;;;;;;;;;;;;;;;-3.09;100.00;95647.53;10552989;28;1952;-73
2024/01/07 20:08:37;;;;;;;;;;;;;;;-3.10;100.00;95664.31;10555086;28;2082;-71
2024/01/07 20:13:41;;;;;;;;;;;;;;;-3.12;100.00;95666.31;10555564;28;2116;-74
2024/01/07 20:18:44;;;;;;;;;;;;;;;-3.01;100.00;95671.06;10546050;28;2611;-70
2024/01/07 20:23:50;;;;;;;;;;;;;;;-3.14;100.00;95669.13;10545858;27;1983;-72
2024/01/07 20:28:55;;;;;;;;;;;;;;;-3.27;100.00;95677.72;10548336;28;1899;-71
2024/01/07 20:33:58;;;;;;;;;;;;;;;-3.23;100.00;95672.13;10549284;28;1941;-68
2024/01/07 20:39:02;;;;;;;;;;;;;;;-3.38;100.00;95683.50;10550645;28;2092;-69
2024/01/07 20:44:05;;;;;;;;;;;;;;;-3.39;100.00;95692.38;10544303;28;2044;-70
2024/01/07 20:49:07;;;;;;;;;;;;;;;-3.43;100.00;95693.78;10552505;28;2125;-71
2024/01/07 20:54:10;;;;;;;;;;;;;;;-3.32;100.00;95689.81;10552080;28;2009;-71
2024/01/07 20:59:13;;;;;;;;;;;;;;;-3.38;100.00;95693.19;10558463;27;2061;-71
2024/01/07 21:04:18;;;;;;;;;;;;;;;-3.33;100.00;95698.72;10561350;27;2465;-72
2024/01/07 21:09:21;;;;;;;;;;;;;;;-3.33;100.00;95694.25;10555977;27;1973;-71
2024/01/07 21:14:24;;;;;;;;;;;;;;;-3.23;100.00;95703.66;10563387;27;1998;-73
2024/01/07 21:19:27;;;;;;;;;;;;;;;-3.32;100.00;95708.22;10563846;28;2042;-71
2024/01/07 21:24:30;;;;;;;;;;;;;;;-3.20;100.00;95703.25;10543499;28;1972;-69
2024/01/07 21:29:41;;;;;;;;;;;;;;;-3.35;100.00;95705.97;10548417;28;2154;-69
2024/01/07 21:34:46;;;;;;;;;;;;;;;-3.22;100.00;95707.91;10561977;27;1965;-74
2024/01/07 21:39:50;;;;;;;;;;;;;;;-3.33;100.00;95714.47;10568930;28;1990;-69
2024/01/07 21:44:53;;;;;;;;;;;;;;;-3.37;100.00;95708.81;10562481;28;1886;-70
2024/01/07 21:49:55;;;;;;;;;;;;;;;-3.40;100.00;95709.16;10565748;27;1861;-69
2024/01/07 21:54:58;;;;;;;;;;;;;;;-3.39;100.00;95720.50;10565320;28;2545;-69
2024/01/07 22:00:02;;;;;;;;;;;;;;;-3.42;100.00;95716.44;10568568;28;2002;-70
2024/01/07 22:05:04;;;;;;;;;;;;;;;-3.34;100.00;95718.94;10564849;28;1875;-70
2024/01/07 22:10:07;;;;;;;;;;;;;;;-3.41;100.00;95728.56;10564921;28;2040;-70
2024/01/07 22:15:13;;;;;;;;;;;;;;;-3.62;100.00;95723.31;10566448;28;2047;-73
2024/01/07 22:20:25;;;;;;;;;;;;;;;-3.70;100.00;95723.41;10561095;28;2021;-69
2024/01/07 22:25:28;;;;;;;;;;;;;;;-3.78;100.00;95715.66;10567499;28;2270;-70
2024/01/07 22:30:31;;;;;;;;;;;;;;;-3.86;100.00;95717.41;10563857;28;1942;-70
2024/01/07 22:35:34;;;;;;;;;;;;;;;-3.81;100.00;95733.41;10561384;28;2383;-74
2024/01/07 22:40:36;;;;;;;;;;;;;;;-3.89;100.00;95740.56;10562777;28;2120;-73
2024/01/07 22:45:40;;;;;;;;;;;;;;;-3.94;100.00;95735.91;10558975;27;2042;-73
2024/01/07 22:50:43;;;;;;;;;;;;;;;-3.94;100.00;95746.41;10563087;27;1873;-72
2024/01/07 22:55:46;;;;;;;;;;;;;;;-3.95;100.00;95751.81;10564158;27;1983;-71
2024/01/07 23:00:50;;;;;;;;;;;;;;;-4.03;100.00;95752.72;10561557;28;2209;-71
2024/01/07 23:05:53;;;;;;;;;;;;;;;-4.11;100.00;95752.84;10567926;28;1968;-68
2024/01/07 23:10:56;;;;;;;;;;;;;;;-4.16;100.00;95757.81;10567179;28;1900;-68
2024/01/07 23:16:01;;;;;;;;;;;;;;;-4.20;100.00;95761.78;10544769;27;1873;-68
2024/01/07 23:21:04;;;;;;;;;;;;;;;-4.30;100.00;95763.91;10560514;28;2417;-69
2024/01/07 23:26:10;;;;;;;;;;;;;;;-4.25;100.00;95766.81;10557300;27;1947;-68
2024/01/07 23:31:13;;;;;;;;;;;;;;;-4.29;100.00;95779.47;10553313;27;1989;-70
2024/01/07 23:36:16;;;;;;;;;;;;;;;-4.23;100.00;95772.69;10554074;28;2074;-68
2024/01/07 23:41:19;;;;;;;;;;;;;;;-4.27;100.00;95780.09;10559405;28;2139;-68
2024/01/07 23:46:22;;;;;;;;;;;;;;;-4.21;100.00;95778.53;10553211;28;1951;-69
2024/01/07 23:51:24;;;;;;;;;;;;;;;-4.32;100.00;95787.72;10556277;27;1934;-68
2024/01/07 23:56:29;;;;;;;;;;;;;;;-4.33;100.00;95783.44;10545247;28;1966;-68
